SVMG/PMV METAR and TAF weather

Enter ICAO airport designator
Station Type Date Time Source
SVMG METAR 2019/12/11 12:00 UTC NOAA

SVMG 111200Z /////KT 9999 SCT010 27/25 Q1012 NOSIG


Station Type Date Time Source
SVMG Decoded METAR 2019/12/11 12:00 UTC NOAA

Margarita / Del Carib, Venezuela (SVMG) 10-55N 063-59W
Dec 11, 2019 - 07:00 AM EST / 2019.12.11 1200 UTC
Visibility: greater than 7 mile(s):0
Sky conditions: partly cloudy
Temperature: 80 F (27 C)
Dew Point: 77 F (25 C)
Relative Humidity: 88%
Pressure (altimeter): 29.88 in. Hg (1012 hPa)
ob: SVMG 111200Z /////KT 9999 SCT010 27/25 Q1012 NOSIG
cycle: 12

Station Type Date Time Source
SVMG TAF 2019/12/11 00:00 UTC NOAA

TAF SVMG 110400Z 1200/1300 09004KT 9999 FEW016 TX33/18Z TN23/08Z
TEMPO 1104/1106 27005KT 9999 SCT010

Example: see airport list